x

Cape San Martin - 55nm West Nw Of Morro Bay, Ca (46028) Wave Buoy

3:50pm - Fri 22nd Sep 2017 All times are PDT. -7 hours from GMT.

  • Sig Wave height 5.9ft
  • Swell Direction
  • Peak Period 11s
  • Average Period 7s
  • Wind
    16mph, 18mph gusts
  • Sea Temp 61°f
  • Air Temp 62°f
  • Sea Pressure 1011.8mb
  • Cape San Martin - 55nm West Nw Of Morro Bay, Ca
  • Cape San Martin - 55nm West Nw Of Morro Bay, Ca

More Historic Weather Station data

Upgrade to MSW Pro to gain access to the past 30 days of data for over 8000 Wavebouys and Weather Stations around the globe.

Join

Comparision Forecast

View Surf forecast
   
Fri 09/22 3:50pm 6ft 11s 7s 16 18 mph 1011.8mb 61f 62f
2:50pm 6ft 11s 7s 13 18 mph 1012.4mb 61f 61f
1:50pm 6ft 11s 7s 11 16 mph 1012.9mb 61f 61f
12:50pm 6ft 11s 7s 11 13 mph 1013.6mb 61f 61f
11:50am 5.5ft 10s 7s 9 11 mph 1013.7mb 61f 61f
10:50am 6.5ft 11s 8s 7 9 mph 1013.9mb 61f 61f
9:50am 7ft 11s 8s 7 9 mph 1013.8mb 60f 61f
8:50am 6ft 11s 7s 7 9 mph 1013.4mb 60f 60f
7:50am 7ft 11s 8s 4 7 mph 1013.1mb 60f 60f
6:50am 7ft 11s 7s 4 7 mph 1012.8mb 61f 60f
5:50am 7ft 11s  -  4 7 mph 1012.4mb 61f 61f
4:50am 7.5ft 11s 7s 9 11 mph 1012.4mb 62f 60f
3:50am 7.5ft 11s 7s 11 13 mph 1012.4mb 62f 61f
2:50am 7.5ft 11s 7s 13 18 mph 1012.6mb 62f 61f
1:50am 7ft 11s 7s 16 18 mph 1013.1mb 62f 61f
12:50am 7ft 11s 7s 16 20 mph 1013.3mb 62f 62f
Thu 09/21 11:50pm 7ft 11s 7s 20 22 mph 1013.4mb 62f 61f
10:50pm 7.5ft 11s 7s 20 25 mph 1013.4mb 62f 62f
9:50pm 7.5ft 11s 7s 20 25 mph 1013.3mb 62f 62f
8:50pm 6.5ft 11s 6s 22 27 mph 1013.4mb 61f 61f
7:50pm 8ft 11s 7s 22 29 mph 1013.2mb 60f 61f
6:50pm 7ft 11s 6s 22 29 mph 1013.3mb 60f 62f
5:50pm 7.5ft 10s 7s 25 29 mph 1013.4mb 61f 62f
4:50pm 7ft 11s 6s 22 27 mph 1013.1mb 62f 62f
3:50pm 7.5ft 11s 7s 20 25 mph 1013.1mb 62f 62f
2:50pm 7.5ft 11s 7s 20 25 mph 1013.3mb 62f 62f
1:50pm 7ft 10s 6s 20 25 mph 1013.5mb 62f 62f
12:50pm 6.5ft 11s 7s 20 22 mph 1013.8mb 62f 62f
11:50am 6.5ft 11s 7s 18 22 mph 1014mb 62f 62f
10:50am 7ft 11s 7s 18 22 mph 1013.7mb 62f 62f
9:50am 7ft 12s 7s 18 22 mph 1013.5mb 61f 62f
8:50am 7ft 11s 7s 18 20 mph 1013.2mb 60f 61f
7:50am 7ft 12s 7s 20 25 mph 1012.8mb 60f 61f
6:50am 8ft 11s 7s 22 27 mph 1012.3mb 60f 61f
5:50am 7ft 12s 7s 22 27 mph 1011.8mb 61f 61f
4:50am 7ft 13s 7s 25 29 mph 1011.5mb 62f 61f
3:50am 7.5ft 13s 7s 22 27 mph 1011.2mb 62f 62f
2:50am 7ft 11s 7s 20 25 mph 1011.4mb 62f 62f
1:50am 7.5ft 11s 8s 20 22 mph 1011.5mb 62f 62f
12:50am 7ft 13s 7s 20 25 mph 1011.6mb 62f 63f
Wed 09/20 11:50pm 8ft 13s 7s 20 25 mph 1011.7mb 62f 63f
10:50pm 7.5ft 13s 7s 20 25 mph 1011.5mb 62f 63f
9:50pm 8.5ft 12s 8s 18 22 mph 1011.6mb 62f 63f
8:50pm 8ft 12s 8s 18 20 mph 1011.7mb 62f 63f
7:50pm 7ft 14s 7s 16 22 mph 1011.6mb 62f 64f
6:50pm 8.5ft 13s 8s 16 18 mph 1011.5mb 62f 64f
5:50pm 8.5ft 13s 8s 18 22 mph 1011.9mb 62f 64f
4:50pm 8.5ft 13s 8s 18 22 mph 1011.8mb 62f 64f
3:50pm 8.5ft 13s 7s 18 22 mph 1012mb 62f 64f
2:50pm 8ft 14s 8s 16 20 mph 1012.6mb 61f 63f
1:50pm 9ft 14s 8s 16 20 mph 1013.1mb 61f 63f
12:50pm 10ft 14s 8s 18 22 mph 1013.3mb 61f 63f
11:50am 9ft 12s 8s 20 22 mph 1013.5mb 61f 63f
10:50am 9.5ft 14s 8s 20 22 mph 1013.8mb 61f 63f
9:50am 10.5ft 14s 8s 20 25 mph 1014mb 61f 62f
8:50am 10ft 15s 7s 29 34 mph 1013.5mb 61f 61f
7:50am 10ft 13s 7s 25 29 mph 1013.6mb 60f 62f
6:50am 11ft 15s 8s 29 38 mph 1012.9mb 60f 62f
5:50am 11.5ft 15s 7s 29 36 mph 1012.9mb 60f 62f
4:50am 12ft 14s 8s 29 36 mph 1013mb 60f 62f
3:50am 11.5ft 15s 8s 31 38 mph 1013mb 61f 62f
2:50am 12.5ft 15s 8s 29 36 mph 1013.2mb 61f 62f
1:50am 12ft 16s 8s 29 34 mph 1013.6mb 61f 62f
12:50am 11ft 14s 8s 29 36 mph 1013.6mb 61f 62f
Tue 09/19 11:50pm 11.5ft 15s 8s 29 38 mph 1013.7mb 61f 62f
10:50pm 12ft 16s 7s 29 36 mph 1013.7mb 61f 62f
9:50pm 10ft 15s 7s 29 34 mph 1013.4mb 61f 62f
8:50pm 10ft 16s 6s 31 38 mph 1013.1mb 61f 62f
7:50pm 9ft 7s 6s 29 38 mph 1012.9mb 61f 62f
6:50pm 9ft 6s 6s 31 38 mph 1013mb 60f 63f
5:50pm 7.5ft 7s  -  29 36 mph 1013.1mb 60f 63f
4:50pm 8ft 7s 6s 29 34 mph 1013.5mb 60f 63f
3:50pm 8ft 7s 6s 29 38 mph 1013.7mb 60f 62f
2:50pm 7.5ft 7s 6s 29 36 mph 1013.8mb 61f 62f
1:50pm 8ft 7s 6s 31 38 mph 1014.3mb 61f 62f
12:50pm 8ft 7s 6s 31 38 mph 1014.9mb 61f 62f
11:50am 8ft 7s 6s 31 38 mph 1015.4mb 61f 62f
10:50am 8ft 7s 6s 31 38 mph 1015.7mb 61f 62f
9:50am 8ft 7s 6s 29 36 mph 1015.8mb 61f 62f
8:50am 8ft 7s 6s 29 38 mph 1015.3mb 62f 62f
7:50am 7ft 7s 6s 27 36 mph 1015.2mb 61f 62f
6:50am 7ft 7s 5s 31 34 mph 1014.7mb 62f 62f
5:50am 7.5ft 6s 6s 29 36 mph 1014.6mb 62f 62f
4:50am 7ft 6s 6s 29 34 mph 1014.2mb 62f 62f
3:50am 7ft 6s 5s 29 36 mph 1014.3mb 62f 62f
2:50am 6ft 6s 5s 27 31 mph 1015mb 62f 62f
1:50am 6ft 6s 5s 27 34 mph 1014.6mb 62f 62f
12:50am 6ft 6s 5s 27 34 mph 1014.6mb 62f 62f